createdAt,value
2018-09-14T00:00:46.778Z,15.31
2018-09-14T00:03:14.911Z,15.24
2018-09-14T00:05:43.078Z,15.18
2018-09-14T00:08:11.220Z,15.34
2018-09-14T00:10:39.357Z,15.46
2018-09-14T00:13:07.493Z,15.34
2018-09-14T00:15:35.774Z,15.48
2018-09-14T00:18:03.913Z,15.50
2018-09-14T00:20:32.060Z,15.50
2018-09-14T00:23:00.243Z,15.46
2018-09-14T00:25:28.456Z,15.45
2018-09-14T00:27:56.698Z,15.50
2018-09-14T00:30:25.032Z,15.53
2018-09-14T00:32:53.263Z,15.59
2018-09-14T00:35:21.415Z,15.45
2018-09-14T00:37:49.574Z,15.51
2018-09-14T00:40:17.844Z,15.63
2018-09-14T00:42:46.062Z,15.49
2018-09-14T00:45:14.371Z,15.32
2018-09-14T00:47:42.596Z,15.43
2018-09-14T00:50:10.720Z,15.35
2018-09-14T00:52:39.024Z,15.48
2018-09-14T00:55:07.166Z,15.47
2018-09-14T00:57:35.559Z,15.40
2018-09-14T01:00:04.078Z,15.29
2018-09-14T01:02:32.927Z,15.34
2018-09-14T01:05:01.090Z,15.39
2018-09-14T01:07:29.242Z,15.36
2018-09-14T01:09:57.370Z,15.46
2018-09-14T01:12:25.537Z,15.45
2018-09-14T01:14:53.755Z,15.50
2018-09-14T01:17:21.962Z,15.50
2018-09-14T01:19:50.042Z,15.41
2018-09-14T01:22:18.191Z,15.35
2018-09-14T01:24:46.488Z,15.43
2018-09-14T01:27:14.609Z,15.56
2018-09-14T01:29:42.736Z,15.33
2018-09-14T01:32:10.882Z,15.31
2018-09-14T01:34:39.175Z,15.39
2018-09-14T01:37:07.470Z,15.12
2018-09-14T01:39:35.602Z,15.37
2018-09-14T01:42:03.721Z,15.50
2018-09-14T01:44:31.912Z,15.30
2018-09-14T01:47:00.040Z,15.39
2018-09-14T01:49:28.194Z,15.38
2018-09-14T01:51:56.328Z,15.30
2018-09-14T01:54:24.489Z,15.36
2018-09-14T01:56:52.648Z,15.44
2018-09-14T01:59:20.852Z,15.35
2018-09-14T02:01:48.976Z,15.41
2018-09-14T02:04:17.108Z,15.43
2018-09-14T02:06:45.428Z,15.43
2018-09-14T02:09:13.574Z,15.51
2018-09-14T02:11:41.688Z,15.47
2018-09-14T02:14:09.796Z,15.46
2018-09-14T02:16:37.923Z,15.50
2018-09-14T02:19:06.234Z,15.36
2018-09-14T02:21:34.376Z,15.56
2018-09-14T02:24:02.490Z,15.39
2018-09-14T02:26:30.644Z,15.47
2018-09-14T02:28:58.843Z,15.48
2018-09-14T02:31:26.953Z,15.53
2018-09-14T02:33:55.089Z,15.45
2018-09-14T02:36:23.257Z,15.55
2018-09-14T02:38:51.390Z,15.53
2018-09-14T02:41:19.491Z,15.46
2018-09-14T02:43:47.724Z,15.48
2018-09-14T02:46:15.829Z,15.47
2018-09-14T02:48:43.921Z,15.59
2018-09-14T02:51:12.079Z,15.49
2018-09-14T02:53:40.257Z,15.44
2018-09-14T02:56:08.488Z,15.48
2018-09-14T02:58:36.812Z,15.46
2018-09-14T03:01:05.272Z,15.46
2018-09-14T03:03:33.371Z,15.57
2018-09-14T03:06:01.518Z,15.56
2018-09-14T03:08:29.806Z,15.43
2018-09-14T03:10:58.058Z,15.36
2018-09-14T03:13:26.176Z,15.37
2018-09-14T03:15:54.458Z,15.44
2018-09-14T03:18:22.628Z,15.42
2018-09-14T03:20:50.849Z,15.18
2018-09-14T03:23:18.978Z,15.24
2018-09-14T03:25:47.124Z,15.39
2018-09-14T03:28:15.270Z,15.39
2018-09-14T03:30:43.844Z,15.38
2018-09-14T03:33:11.978Z,15.24
2018-09-14T03:35:40.100Z,15.21
2018-09-14T03:38:08.192Z,15.19
2018-09-14T03:40:36.340Z,15.29
2018-09-14T03:43:04.469Z,15.23
2018-09-14T03:45:32.611Z,15.23
2018-09-14T03:48:00.744Z,15.15
2018-09-14T03:50:29.086Z,15.31
2018-09-14T03:52:57.250Z,15.24
2018-09-14T03:55:25.420Z,15.29
2018-09-14T03:57:53.709Z,15.06
2018-09-14T04:00:21.941Z,15.11
2018-09-14T04:02:50.242Z,15.17
2018-09-14T04:05:18.537Z,15.18
2018-09-14T04:07:46.886Z,15.35
2018-09-14T04:10:14.968Z,15.38
2018-09-14T04:12:43.316Z,15.41
2018-09-14T04:15:11.496Z,15.35
2018-09-14T04:17:40.111Z,15.29
2018-09-14T04:20:08.485Z,15.31
2018-09-14T04:22:36.634Z,15.35
2018-09-14T04:25:04.808Z,15.38
2018-09-14T04:27:33.001Z,15.41
2018-09-14T04:30:01.935Z,15.34
2018-09-14T04:32:30.145Z,15.31
2018-09-14T04:34:58.468Z,15.35
2018-09-14T04:37:26.673Z,15.38
2018-09-14T04:39:54.912Z,15.33
2018-09-14T04:42:23.080Z,15.35
2018-09-14T04:44:51.410Z,15.42
2018-09-14T04:47:19.709Z,15.39
2018-09-14T04:49:47.851Z,15.36
2018-09-14T04:52:16.088Z,15.44
2018-09-14T04:54:44.257Z,15.44
2018-09-14T04:57:12.621Z,15.43
2018-09-14T04:59:40.832Z,15.36
2018-09-14T05:02:09.072Z,15.34
2018-09-14T05:04:37.271Z,15.45
2018-09-14T05:07:05.527Z,15.40
2018-09-14T05:09:33.653Z,15.33
2018-09-14T05:12:01.930Z,15.50
2018-09-14T05:14:30.232Z,15.65
2018-09-14T05:16:58.580Z,15.65
2018-09-14T05:19:29.120Z,15.55
2018-09-14T05:21:57.383Z,15.77
2018-09-14T05:24:25.670Z,15.74
2018-09-14T05:26:54.120Z,15.73
2018-09-14T05:29:22.295Z,15.70
2018-09-14T05:31:50.840Z,15.74
2018-09-14T05:34:19.171Z,15.85
2018-09-14T05:36:47.355Z,15.80
2018-09-14T05:39:15.602Z,15.79
2018-09-14T05:41:43.998Z,15.84
2018-09-14T05:44:12.386Z,16.02
2018-09-14T05:46:40.663Z,15.96
2018-09-14T05:49:08.778Z,16.11
2018-09-14T05:51:36.906Z,16.15
2018-09-14T05:54:05.159Z,16.07
2018-09-14T05:56:33.313Z,16.00
2018-09-14T05:59:01.634Z,15.99
2018-09-14T06:01:30.827Z,16.01
2018-09-14T06:03:59.092Z,15.95
2018-09-14T06:06:27.302Z,16.06
2018-09-14T06:08:55.519Z,16.23
2018-09-14T06:11:23.951Z,16.28
2018-09-14T06:13:52.121Z,16.24
2018-09-14T06:16:20.267Z,16.10
2018-09-14T06:18:49.007Z,16.10
2018-09-14T06:21:17.193Z,15.97
2018-09-14T06:23:45.545Z,16.16
2018-09-14T06:26:13.806Z,16.40
2018-09-14T06:28:42.021Z,16.38
2018-09-14T06:31:10.327Z,16.49
2018-09-14T06:33:38.507Z,16.46
2018-09-14T06:36:06.721Z,16.57
2018-09-14T06:38:39.493Z,16.62
2018-09-14T06:41:07.639Z,16.60
2018-09-14T06:43:35.925Z,16.71
2018-09-14T06:46:04.418Z,16.82
2018-09-14T06:48:32.552Z,16.95
2018-09-14T06:51:00.754Z,16.95
2018-09-14T06:53:28.985Z,16.96
2018-09-14T06:55:57.190Z,16.84
2018-09-14T06:58:25.977Z,17.09
2018-09-14T07:00:54.216Z,16.99
2018-09-14T07:03:23.140Z,16.94
2018-09-14T07:05:51.422Z,17.10
2018-09-14T07:08:19.983Z,17.11
2018-09-14T07:10:48.125Z,17.28
2018-09-14T07:13:16.381Z,17.38
2018-09-14T07:15:44.491Z,17.40
2018-09-14T07:18:12.644Z,17.29
2018-09-14T07:20:40.843Z,17.34
2018-09-14T07:23:09.369Z,17.46
2018-09-14T07:25:38.065Z,17.66
2018-09-14T07:28:06.150Z,17.52
2018-09-14T07:30:34.406Z,17.63
2018-09-14T07:33:02.578Z,17.60
2018-09-14T07:35:33.788Z,17.66
2018-09-14T07:38:02.077Z,17.56
2018-09-14T07:40:30.429Z,17.58
2018-09-14T07:42:58.614Z,17.67
2018-09-14T07:45:26.892Z,17.65
2018-09-14T07:47:55.107Z,17.44
2018-09-14T07:50:23.472Z,17.64
2018-09-14T07:52:51.776Z,17.33
2018-09-14T07:55:20.277Z,17.32
2018-09-14T07:57:48.612Z,17.34
2018-09-14T08:00:17.031Z,17.56
2018-09-14T08:02:45.201Z,17.63
2018-09-14T08:05:15.210Z,17.72
2018-09-14T08:07:43.352Z,18.09
2018-09-14T08:10:13.968Z,17.93
2018-09-14T08:12:42.717Z,18.08
2018-09-14T08:15:10.960Z,17.83
2018-09-14T08:17:39.102Z,18.25
2018-09-14T08:20:11.144Z,18.50
2018-09-14T08:22:39.230Z,18.52
2018-09-14T08:25:07.478Z,18.43
2018-09-14T08:27:35.715Z,18.22
2018-09-14T08:30:03.905Z,18.61
2018-09-14T08:32:32.261Z,18.62
2018-09-14T08:35:00.569Z,18.69
2018-09-14T08:37:28.836Z,18.82
2018-09-14T08:39:57.266Z,19.03
2018-09-14T08:42:25.448Z,18.59
2018-09-14T08:44:54.018Z,18.56
2018-09-14T08:47:22.242Z,18.49
2018-09-14T08:49:50.672Z,18.41
2018-09-14T08:52:18.887Z,18.77
2018-09-14T08:54:47.081Z,18.91
2018-09-14T08:57:15.935Z,19.03
2018-09-14T08:59:44.197Z,19.00
2018-09-14T09:02:12.393Z,19.18
2018-09-14T09:04:40.538Z,18.78
2018-09-14T09:07:10.847Z,19.34
2018-09-14T09:09:39.062Z,19.03
2018-09-14T09:12:07.242Z,19.17
2018-09-14T09:14:35.499Z,19.13
2018-09-14T09:17:03.614Z,19.26
2018-09-14T09:19:32.381Z,19.36
2018-09-14T09:22:00.688Z,19.39
2018-09-14T09:24:28.965Z,19.14
2018-09-14T09:26:57.134Z,19.01
2018-09-14T09:29:25.315Z,19.14
2018-09-14T09:31:53.439Z,19.53
2018-09-14T09:34:21.694Z,19.70
2018-09-14T09:36:49.847Z,19.70
2018-09-14T09:39:17.992Z,19.75
2018-09-14T09:41:46.098Z,19.72
2018-09-14T09:44:14.432Z,19.33
2018-09-14T09:46:42.640Z,19.17
2018-09-14T09:49:10.858Z,18.80
2018-09-14T09:51:39.193Z,18.80
2018-09-14T09:54:07.356Z,18.84
2018-09-14T09:56:35.607Z,18.80
2018-09-14T09:59:03.784Z,18.88
2018-09-14T10:01:34.816Z,18.56
2018-09-14T10:04:08.674Z,18.80
2018-09-14T10:06:36.939Z,18.59
2018-09-14T10:09:07.763Z,19.02
2018-09-14T10:11:36.015Z,19.03
2018-09-14T10:14:04.538Z,19.10
2018-09-14T10:16:32.642Z,19.08
2018-09-14T10:19:00.792Z,18.94
2018-09-14T10:21:29.085Z,19.08
2018-09-14T10:23:57.272Z,19.04
2018-09-14T10:26:25.580Z,19.24
2018-09-14T10:28:53.861Z,19.22
2018-09-14T10:31:22.132Z,19.23
2018-09-14T10:33:50.314Z,19.04
2018-09-14T10:36:18.454Z,19.14
2018-09-14T10:38:47.027Z,19.05
2018-09-14T10:41:21.832Z,19.18
2018-09-14T10:43:49.984Z,19.21
2018-09-14T10:46:18.261Z,19.02
2018-09-14T10:48:46.675Z,19.19
2018-09-14T10:51:14.859Z,19.11
2018-09-14T10:53:43.030Z,19.09
2018-09-14T10:56:12.133Z,19.12
2018-09-14T10:58:42.362Z,19.07
2018-09-14T11:01:12.097Z,19.30
2018-09-14T11:03:40.371Z,19.25
2018-09-14T11:06:09.209Z,19.16
2018-09-14T11:08:37.337Z,19.26
2018-09-14T11:11:05.868Z,19.48
2018-09-14T11:13:34.028Z,19.50
2018-09-14T11:16:02.267Z,19.59
2018-09-14T11:18:30.475Z,19.82
2018-09-14T11:20:58.695Z,19.80
2018-09-14T11:23:26.837Z,19.83
2018-09-14T11:25:55.020Z,20.06
2018-09-14T11:28:23.428Z,20.14
2018-09-14T11:30:51.595Z,20.01
2018-09-14T11:33:19.904Z,20.07
2018-09-14T11:35:48.152Z,20.10
2018-09-14T11:38:16.315Z,20.16
2018-09-14T11:40:44.497Z,19.91
2018-09-14T11:43:12.657Z,20.11
2018-09-14T11:45:40.845Z,20.30
2018-09-14T11:48:09.424Z,20.25
2018-09-14T11:50:38.072Z,20.19
2018-09-14T11:53:06.442Z,20.15
2018-09-14T11:55:34.565Z,20.35
2018-09-14T11:58:02.692Z,20.04
2018-09-14T12:00:31.053Z,20.00
2018-09-14T12:02:59.217Z,20.05
2018-09-14T12:05:27.404Z,20.13
2018-09-14T12:07:55.662Z,20.09
2018-09-14T12:10:23.858Z,20.12
2018-09-14T12:12:52.020Z,20.03
2018-09-14T12:15:20.195Z,20.03
2018-09-14T12:17:48.355Z,20.16
2018-09-14T12:20:16.588Z,20.49
2018-09-14T12:22:44.837Z,20.54
2018-09-14T12:25:13.087Z,20.65
2018-09-14T12:27:41.469Z,20.86
2018-09-14T12:30:09.644Z,20.94
2018-09-14T12:32:37.890Z,20.67
2018-09-14T12:35:06.084Z,20.70
2018-09-14T12:37:34.258Z,20.78
2018-09-14T12:40:02.474Z,21.10
2018-09-14T12:42:30.739Z,21.27
2018-09-14T12:44:58.974Z,21.32
2018-09-14T12:47:27.224Z,20.94
2018-09-14T12:49:55.452Z,20.87
2018-09-14T12:52:23.719Z,21.18
2018-09-14T12:54:51.924Z,21.21
2018-09-14T12:57:20.125Z,21.20
2018-09-14T12:59:48.328Z,21.41
2018-09-14T13:02:16.850Z,21.25
2018-09-14T13:04:45.189Z,20.75
2018-09-14T13:07:13.412Z,20.67
2018-09-14T13:09:41.593Z,20.33
2018-09-14T13:12:09.914Z,20.35
2018-09-14T13:14:38.163Z,20.32
2018-09-14T13:17:10.615Z,20.29
2018-09-14T13:19:39.058Z,20.43
2018-09-14T13:22:07.442Z,20.50
2018-09-14T13:24:35.588Z,20.77
2018-09-14T13:27:03.900Z,20.95
2018-09-14T13:29:32.076Z,21.04
2018-09-14T13:32:00.293Z,21.07
2018-09-14T13:34:28.497Z,21.59
2018-09-14T13:36:56.836Z,21.67
2018-09-14T13:39:25.049Z,21.69
2018-09-14T13:41:53.326Z,21.65
2018-09-14T13:44:21.620Z,21.58
2018-09-14T13:46:50.190Z,20.95
2018-09-14T13:49:18.429Z,21.00
2018-09-14T13:51:46.544Z,20.97
2018-09-14T13:54:14.682Z,20.96
2018-09-14T13:56:42.882Z,20.89
2018-09-14T13:59:11.209Z,21.09
2018-09-14T14:01:39.447Z,20.94
2018-09-14T14:04:07.641Z,20.94
2018-09-14T14:06:35.811Z,21.13
2018-09-14T14:09:05.894Z,21.18
2018-09-14T14:11:34.169Z,21.20
2018-09-14T14:14:02.408Z,21.06
2018-09-14T14:16:31.155Z,20.85
2018-09-14T14:18:59.315Z,21.05
2018-09-14T14:21:27.738Z,21.19
2018-09-14T14:23:56.006Z,21.36
2018-09-14T14:26:24.951Z,21.37
2018-09-14T14:28:53.130Z,21.28
2018-09-14T14:31:21.342Z,21.32
2018-09-14T14:33:49.540Z,21.22
2018-09-14T14:36:17.796Z,21.35
2018-09-14T14:38:46.174Z,21.15
2018-09-14T14:41:14.422Z,20.97
2018-09-14T14:43:42.816Z,21.05
2018-09-14T14:46:11.126Z,21.18
2018-09-14T14:48:39.363Z,21.07
2018-09-14T14:51:07.758Z,21.01
2018-09-14T14:53:35.899Z,21.19
2018-09-14T14:56:04.190Z,21.14
2018-09-14T14:58:32.379Z,21.18
2018-09-14T15:01:00.862Z,21.16
2018-09-14T15:03:29.380Z,20.85
2018-09-14T15:05:57.601Z,20.74
2018-09-14T15:08:26.464Z,20.95
2018-09-14T15:10:54.682Z,20.97
2018-09-14T15:13:22.834Z,20.88
2018-09-14T15:15:51.028Z,20.94
2018-09-14T15:18:19.276Z,20.97
2018-09-14T15:20:47.379Z,21.05
2018-09-14T15:23:15.503Z,21.18
2018-09-14T15:25:43.712Z,20.84
2018-09-14T15:28:11.968Z,21.06
2018-09-14T15:30:40.263Z,21.23
2018-09-14T15:33:08.442Z,21.29
2018-09-14T15:35:39.598Z,21.20
2018-09-14T15:38:08.026Z,21.22
2018-09-14T15:40:36.183Z,21.10
2018-09-14T15:43:04.373Z,20.92
2018-09-14T15:45:32.576Z,20.91
2018-09-14T15:48:00.973Z,21.04
2018-09-14T15:50:29.285Z,21.05
2018-09-14T15:52:57.530Z,20.76
2018-09-14T15:55:25.856Z,20.78
2018-09-14T15:57:54.035Z,20.65
2018-09-14T16:00:22.808Z,20.57
2018-09-14T16:02:52.092Z,20.58
2018-09-14T16:05:20.348Z,20.56
2018-09-14T16:07:48.663Z,20.63
2018-09-14T16:10:17.145Z,20.44
2018-09-14T16:12:45.367Z,20.44
2018-09-14T16:15:13.540Z,20.20
2018-09-14T16:17:41.678Z,20.20
2018-09-14T16:20:09.860Z,20.21
2018-09-14T16:22:38.022Z,20.31
2018-09-14T16:25:06.554Z,20.29
2018-09-14T16:27:34.814Z,20.26
2018-09-14T16:30:03.185Z,20.25
2018-09-14T16:32:31.750Z,20.12
2018-09-14T16:35:00.080Z,20.06
2018-09-14T16:37:29.097Z,19.94
2018-09-14T16:39:57.418Z,20.06
2018-09-14T16:42:25.660Z,20.00
2018-09-14T16:44:54.493Z,20.03
2018-09-14T16:47:22.785Z,19.95
2018-09-14T16:49:51.004Z,19.81
2018-09-14T16:52:19.224Z,19.70
2018-09-14T16:54:47.840Z,19.60
2018-09-14T16:57:16.037Z,19.56
2018-09-14T16:59:44.510Z,19.56
2018-09-14T17:02:12.730Z,19.62
2018-09-14T17:04:40.877Z,19.53
2018-09-14T17:07:09.248Z,19.47
2018-09-14T17:09:37.415Z,19.61
2018-09-14T17:12:05.681Z,19.52
2018-09-14T17:14:33.904Z,19.48
2018-09-14T17:17:02.086Z,19.50
2018-09-14T17:19:30.284Z,19.45
2018-09-14T17:21:58.651Z,19.32
2018-09-14T17:24:26.851Z,19.33
2018-09-14T17:26:55.259Z,19.28
2018-09-14T17:29:23.584Z,19.22
2018-09-14T17:31:51.905Z,19.18
2018-09-14T17:34:20.152Z,19.09
2018-09-14T17:36:48.353Z,18.94
2018-09-14T17:39:16.603Z,18.97
2018-09-14T17:41:44.806Z,19.01
2018-09-14T17:44:13.032Z,18.97
2018-09-14T17:46:41.329Z,18.85
2018-09-14T17:49:09.596Z,18.74
2018-09-14T17:51:37.797Z,18.67
2018-09-14T17:54:06.248Z,18.76
2018-09-14T17:56:34.507Z,18.80
2018-09-14T17:59:02.728Z,18.76
2018-09-14T18:01:30.964Z,18.76
2018-09-14T18:03:59.341Z,18.81
2018-09-14T18:06:27.620Z,18.78
2018-09-14T18:08:55.818Z,18.63
2018-09-14T18:11:23.989Z,18.63
2018-09-14T18:13:52.193Z,18.69
2018-09-14T18:16:20.662Z,18.63
2018-09-14T18:18:48.813Z,18.62
2018-09-14T18:21:16.998Z,18.54
2018-09-14T18:23:45.274Z,18.36
2018-09-14T18:26:13.462Z,18.37
2018-09-14T18:28:41.817Z,18.11
2018-09-14T18:31:10.407Z,18.08
2018-09-14T18:33:41.112Z,18.14
2018-09-14T18:36:13.914Z,18.03
2018-09-14T18:38:42.656Z,18.08
2018-09-14T18:41:12.257Z,17.93
2018-09-14T18:43:41.380Z,18.00
2018-09-14T18:46:10.288Z,17.79
2018-09-14T18:48:38.866Z,17.73
2018-09-14T18:51:07.850Z,17.67
2018-09-14T18:53:36.329Z,17.79
2018-09-14T18:56:05.036Z,17.70
2018-09-14T18:58:33.675Z,17.74
2018-09-14T19:01:02.293Z,17.60
2018-09-14T19:03:31.112Z,17.55
2018-09-14T19:05:59.847Z,17.52
2018-09-14T19:08:28.458Z,17.42
2018-09-14T19:10:57.037Z,17.36
2018-09-14T19:13:25.555Z,17.50
2018-09-14T19:15:54.105Z,17.38
2018-09-14T19:18:22.789Z,17.42
2018-09-14T19:20:51.377Z,17.39
2018-09-14T19:23:26.588Z,17.31
2018-09-14T19:25:55.122Z,17.21
2018-09-14T19:28:24.258Z,17.16
2018-09-14T19:30:53.591Z,17.18
2018-09-14T19:33:22.176Z,17.11
2018-09-14T19:35:50.836Z,17.13
2018-09-14T19:38:19.453Z,17.09
2018-09-14T19:40:47.973Z,17.15
2018-09-14T19:43:16.582Z,17.00
2018-09-14T19:45:52.284Z,16.99
2018-09-14T19:48:21.052Z,16.84
2018-09-14T19:50:49.635Z,16.90
2018-09-14T19:53:18.216Z,16.92
2018-09-14T19:55:46.737Z,16.94
2018-09-14T19:58:15.319Z,16.87
2018-09-14T20:00:43.907Z,16.87
2018-09-14T20:03:12.760Z,16.73
2018-09-14T20:05:41.280Z,16.72
2018-09-14T20:08:09.806Z,16.85
2018-09-14T20:10:44.999Z,16.79
2018-09-14T20:13:13.586Z,16.76
2018-09-14T20:15:42.078Z,16.62
2018-09-14T20:18:10.627Z,16.56
2018-09-14T20:20:39.058Z,16.52
2018-09-14T20:23:07.523Z,16.49
2018-09-14T20:25:35.857Z,16.55
2018-09-14T20:28:04.229Z,16.45
2018-09-14T20:30:32.445Z,16.53
2018-09-14T20:33:00.762Z,16.55
2018-09-14T20:35:29.159Z,16.59
2018-09-14T20:37:57.383Z,16.47
2018-09-14T20:40:25.656Z,16.51
2018-09-14T20:42:53.914Z,16.76
2018-09-14T20:45:22.198Z,16.77
2018-09-14T20:47:50.496Z,16.92
2018-09-14T20:50:18.960Z,16.86
2018-09-14T20:52:47.240Z,16.96
2018-09-14T20:55:15.497Z,16.87
2018-09-14T20:57:43.786Z,17.08
2018-09-14T21:00:12.286Z,17.06
2018-09-14T21:02:40.469Z,17.01
2018-09-14T21:05:08.853Z,17.04
2018-09-14T21:07:37.174Z,17.03
2018-09-14T21:10:05.361Z,17.06
2018-09-14T21:12:33.691Z,16.95
2018-09-14T21:15:02.081Z,16.98
2018-09-14T21:17:30.958Z,16.95
2018-09-14T21:20:03.221Z,16.88
2018-09-14T21:22:31.940Z,16.86
2018-09-14T21:25:01.145Z,16.78
2018-09-14T21:27:29.342Z,16.79
2018-09-14T21:29:57.466Z,16.78
2018-09-14T21:32:25.658Z,16.87
2018-09-14T21:34:53.812Z,16.79
2018-09-14T21:37:22.095Z,16.81
2018-09-14T21:39:50.321Z,16.81
2018-09-14T21:42:18.567Z,16.82
2018-09-14T21:44:46.787Z,16.77
2018-09-14T21:47:15.972Z,16.68
2018-09-14T21:49:44.152Z,16.78
2018-09-14T21:52:12.436Z,16.80
2018-09-14T21:54:40.648Z,16.87
2018-09-14T21:57:08.893Z,16.86
2018-09-14T21:59:37.068Z,16.69
2018-09-14T22:02:05.415Z,16.62
2018-09-14T22:04:33.592Z,16.75
2018-09-14T22:07:01.773Z,16.74
2018-09-14T22:09:30.029Z,16.81
2018-09-14T22:11:58.429Z,16.81
2018-09-14T22:14:26.718Z,16.86
2018-09-14T22:16:54.983Z,16.87
2018-09-14T22:19:23.121Z,16.87
2018-09-14T22:21:51.372Z,16.92
2018-09-14T22:24:19.616Z,16.92
2018-09-14T22:26:47.876Z,16.84
2018-09-14T22:29:16.055Z,16.87
2018-09-14T22:31:44.301Z,16.86
2018-09-14T22:34:12.528Z,16.90
2018-09-14T22:36:40.793Z,17.10
2018-09-14T22:39:10.416Z,16.94
2018-09-14T22:41:38.549Z,16.85
2018-09-14T22:44:06.879Z,16.96
2018-09-14T22:46:34.987Z,16.99
2018-09-14T22:49:03.405Z,16.92
2018-09-14T22:51:31.651Z,17.05
2018-09-14T22:53:59.810Z,17.02
2018-09-14T22:56:27.960Z,17.16
2018-09-14T22:58:56.122Z,16.97
2018-09-14T23:01:24.417Z,16.86
2018-09-14T23:03:53.538Z,16.80
2018-09-14T23:06:21.704Z,16.85
2018-09-14T23:08:49.897Z,16.84
2018-09-14T23:11:18.113Z,16.81
2018-09-14T23:13:46.335Z,16.98
2018-09-14T23:16:14.623Z,16.90
2018-09-14T23:18:42.917Z,16.94
2018-09-14T23:21:11.157Z,16.89
2018-09-14T23:23:39.314Z,16.87
2018-09-14T23:26:11.955Z,16.88
2018-09-14T23:28:40.094Z,16.91
2018-09-14T23:31:08.227Z,16.99
2018-09-14T23:33:36.438Z,17.01
2018-09-14T23:36:04.572Z,17.04
2018-09-14T23:38:32.725Z,17.15
2018-09-14T23:41:00.960Z,17.00
2018-09-14T23:43:29.245Z,16.97
2018-09-14T23:45:57.465Z,17.06
2018-09-14T23:48:25.732Z,17.10
2018-09-14T23:50:54.127Z,17.18
2018-09-14T23:53:22.409Z,17.02
2018-09-14T23:55:50.563Z,16.96
2018-09-14T23:58:18.728Z,16.87
